Terminal Aerodrome Forecast
Issued by NWS Chicago, IL

Home | Current Version | Previous Version | Text Only | Print | Product List | Glossary Off
Versions: 1 2 3 4 5 6 7 8 9 10 11 12 13 14 15 16 17 18 19 20 21 22 23 24 25 26 27 28 29 30 31 32 33 34

000
FTUS43 KLOT 241300 AAA
TAFRFD
TAF AMD
KRFD 241405Z 2414/2512 13007KT P6SM SCT025 BKN035
      TEMPO 2414/2415 BKN025
     FM241500 16010KT P6SM SCT025 SCT250
     FM250100 15006KT P6SM FEW025
     FM250900 16003KT 4SM BR BCFG SCT250=

USA.gov is the U.S. government's official web portal to all federal, state and local government web resources and services.